createdAt,value
2023-06-17T00:02:00.412Z,99.90
2023-06-17T00:04:27.550Z,99.90
2023-06-17T00:06:54.637Z,99.90
2023-06-17T00:09:21.522Z,99.90
2023-06-17T00:11:48.909Z,99.90
2023-06-17T00:14:17.590Z,99.90
2023-06-17T00:16:45.018Z,99.90
2023-06-17T00:19:16.857Z,99.90
2023-06-17T00:21:45.202Z,99.90
2023-06-17T00:24:13.441Z,99.90
2023-06-17T00:26:40.425Z,99.90
2023-06-17T00:29:08.130Z,99.90
2023-06-17T00:31:35.462Z,99.90
2023-06-17T00:34:02.383Z,99.90
2023-06-17T00:36:29.265Z,99.90
2023-06-17T00:38:56.213Z,99.90
2023-06-17T00:41:23.323Z,99.90
2023-06-17T00:43:50.472Z,99.90
2023-06-17T00:46:38.791Z,99.90
2023-06-17T00:49:12.932Z,99.90
2023-06-17T00:51:40.057Z,99.90
2023-06-17T00:54:11.006Z,99.90
2023-06-17T00:56:38.963Z,99.90
2023-06-17T00:59:06.524Z,99.90
2023-06-17T01:01:36.469Z,99.90
2023-06-17T01:04:05.838Z,99.90
2023-06-17T01:06:47.123Z,99.90
2023-06-17T01:09:21.523Z,99.90
2023-06-17T01:11:51.769Z,99.90
2023-06-17T01:14:20.087Z,99.90
2023-06-17T01:16:51.956Z,99.90
2023-06-17T01:19:25.892Z,99.90
2023-06-17T01:21:54.604Z,99.90
2023-06-17T01:24:31.539Z,99.90
2023-06-17T01:27:01.024Z,99.90
2023-06-17T01:29:30.495Z,99.90
2023-06-17T01:31:59.013Z,99.90
2023-06-17T01:34:57.405Z,99.90
2023-06-17T01:37:56.172Z,99.90
2023-06-17T01:40:24.656Z,99.90
2023-06-17T01:42:54.117Z,99.90
2023-06-17T01:45:21.825Z,99.90
2023-06-17T01:47:49.060Z,99.90
2023-06-17T01:50:20.905Z,99.90
2023-06-17T01:52:48.168Z,99.90
2023-06-17T01:55:18.412Z,99.90
2023-06-17T01:57:45.384Z,99.90
2023-06-17T02:00:14.270Z,99.90
2023-06-17T02:02:41.501Z,99.90
2023-06-17T02:05:09.976Z,99.90
2023-06-17T02:07:37.509Z,99.90
2023-06-17T02:10:05.182Z,99.90
2023-06-17T02:12:33.421Z,99.90
2023-06-17T02:15:01.006Z,99.90
2023-06-17T02:17:30.571Z,99.90
2023-06-17T02:19:57.503Z,99.90
2023-06-17T02:22:24.441Z,99.90
2023-06-17T02:24:51.392Z,99.90
2023-06-17T02:27:18.308Z,99.90
2023-06-17T02:29:45.937Z,99.90
2023-06-17T02:32:13.272Z,99.90
2023-06-17T02:34:43.377Z,99.90
2023-06-17T02:37:10.969Z,99.90
2023-06-17T02:39:37.920Z,99.90
2023-06-17T02:42:05.389Z,99.90
2023-06-17T02:44:32.339Z,99.90
2023-06-17T02:46:59.312Z,99.90
2023-06-17T02:49:26.656Z,99.90
2023-06-17T02:51:53.639Z,99.90
2023-06-17T02:54:20.844Z,99.90
2023-06-17T02:56:47.734Z,99.90
2023-06-17T02:59:16.320Z,99.90
2023-06-17T03:01:44.284Z,99.90
2023-06-17T03:04:12.005Z,99.90
2023-06-17T03:06:42.221Z,99.90
2023-06-17T03:09:09.686Z,99.90
2023-06-17T03:11:40.707Z,99.90
2023-06-17T03:14:08.833Z,99.90
2023-06-17T03:16:35.891Z,99.90
2023-06-17T03:19:03.252Z,99.90
2023-06-17T03:21:31.817Z,99.90
2023-06-17T03:23:59.812Z,99.90
2023-06-17T03:26:27.163Z,99.90
2023-06-17T03:28:54.399Z,99.90
2023-06-17T03:31:22.746Z,99.90
2023-06-17T03:33:53.026Z,99.90
2023-06-17T03:36:20.792Z,99.90
2023-06-17T03:38:47.634Z,99.90
2023-06-17T03:41:14.521Z,99.90
2023-06-17T03:43:41.640Z,99.90
2023-06-17T03:46:08.725Z,99.90
2023-06-17T03:48:35.623Z,99.90
2023-06-17T03:51:03.622Z,99.90
2023-06-17T03:53:31.138Z,99.90
2023-06-17T03:55:58.018Z,99.90
2023-06-17T03:58:25.700Z,99.90
2023-06-17T04:00:53.057Z,99.90
2023-06-17T04:03:20.458Z,99.90
2023-06-17T04:05:47.437Z,99.90
2023-06-17T04:08:14.411Z,99.90
2023-06-17T04:10:41.339Z,99.90
2023-06-17T04:13:08.341Z,99.90
2023-06-17T04:15:35.248Z,99.90
2023-06-17T04:18:03.696Z,99.90
2023-06-17T04:20:30.764Z,99.90
2023-06-17T04:22:57.662Z,99.90
2023-06-17T04:25:24.579Z,99.90
2023-06-17T04:27:54.481Z,99.90
2023-06-17T04:30:21.931Z,99.90
2023-06-17T04:32:51.230Z,99.90
2023-06-17T04:35:19.986Z,99.90
2023-06-17T04:37:54.334Z,99.90
2023-06-17T04:40:23.311Z,99.90
2023-06-17T04:42:52.433Z,99.90
2023-06-17T04:45:19.477Z,99.90
2023-06-17T04:47:46.978Z,99.90
2023-06-17T04:50:18.340Z,99.90
2023-06-17T04:52:48.795Z,99.90
2023-06-17T04:55:15.744Z,99.90
2023-06-17T04:57:43.604Z,99.90
2023-06-17T05:00:11.921Z,99.90
2023-06-17T05:02:41.006Z,99.90
2023-06-17T05:05:08.849Z,99.90
2023-06-17T05:07:36.041Z,99.90
2023-06-17T05:10:03.327Z,99.90
2023-06-17T05:12:30.229Z,99.90
2023-06-17T05:14:57.162Z,99.90
2023-06-17T05:17:24.270Z,99.90
2023-06-17T05:19:51.279Z,99.90
2023-06-17T05:22:18.178Z,99.90
2023-06-17T05:24:45.386Z,99.90
2023-06-17T05:27:12.408Z,99.90
2023-06-17T05:29:40.399Z,99.90
2023-06-17T05:32:07.974Z,99.90
2023-06-17T05:34:35.124Z,99.90
2023-06-17T05:37:02.236Z,99.90
2023-06-17T05:39:29.187Z,99.90
2023-06-17T05:41:56.053Z,99.90
2023-06-17T05:44:23.076Z,99.90
2023-06-17T05:46:50.077Z,99.90
2023-06-17T05:49:17.447Z,99.90
2023-06-17T05:51:44.441Z,99.90
2023-06-17T05:54:11.321Z,99.90
2023-06-17T05:56:38.160Z,99.90
2023-06-17T05:59:05.072Z,99.90
2023-06-17T06:01:32.031Z,99.90
2023-06-17T06:03:59.038Z,99.90
2023-06-17T06:06:25.992Z,99.90
2023-06-17T06:08:52.960Z,99.90
2023-06-17T06:11:19.903Z,99.90
2023-06-17T06:13:47.188Z,99.90
2023-06-17T06:16:14.089Z,99.90
2023-06-17T06:18:41.013Z,99.90
2023-06-17T06:21:07.903Z,99.90
2023-06-17T06:23:36.989Z,99.90
2023-06-17T06:26:03.947Z,99.90
2023-06-17T06:28:30.956Z,99.90
2023-06-17T06:30:57.823Z,99.90
2023-06-17T06:33:24.737Z,99.90
2023-06-17T06:35:51.687Z,99.90
2023-06-17T06:38:18.665Z,99.90
2023-06-17T06:40:45.561Z,99.90
2023-06-17T06:43:12.460Z,99.90
2023-06-17T06:45:39.400Z,99.90
2023-06-17T06:48:06.447Z,99.90
2023-06-17T06:50:34.457Z,99.90
2023-06-17T06:53:01.536Z,99.90
2023-06-17T06:55:29.731Z,99.90
2023-06-17T06:57:56.663Z,99.90
2023-06-17T07:00:23.713Z,99.90
2023-06-17T07:02:50.827Z,99.90
2023-06-17T07:05:17.770Z,99.90
2023-06-17T07:07:45.574Z,99.90
2023-06-17T07:10:12.537Z,99.90
2023-06-17T07:12:39.461Z,99.90
2023-06-17T07:15:07.215Z,99.90
2023-06-17T07:17:34.248Z,99.90
2023-06-17T07:20:01.211Z,99.90
2023-06-17T07:22:28.087Z,99.90
2023-06-17T07:24:55.091Z,99.90
2023-06-17T07:27:21.946Z,99.90
2023-06-17T07:29:48.864Z,99.90
2023-06-17T07:32:15.765Z,99.90
2023-06-17T07:34:42.672Z,99.90
2023-06-17T07:37:09.946Z,99.90
2023-06-17T07:39:36.874Z,99.90
2023-06-17T07:42:04.042Z,99.90
2023-06-17T07:44:32.949Z,99.90
2023-06-17T07:46:59.851Z,99.90
2023-06-17T07:49:26.805Z,99.90
2023-06-17T07:51:53.704Z,99.90
2023-06-17T07:54:20.625Z,99.90
2023-06-17T07:56:47.491Z,99.90
2023-06-17T07:59:14.424Z,99.30
2023-06-17T08:01:41.354Z,98.10
2023-06-17T08:04:08.405Z,98.40
2023-06-17T08:06:36.513Z,97.20
2023-06-17T08:09:04.215Z,97.00
2023-06-17T08:11:31.108Z,97.30
2023-06-17T08:13:58.069Z,97.30
2023-06-17T08:16:25.008Z,98.00
2023-06-17T08:18:52.147Z,96.10
2023-06-17T08:21:18.985Z,95.70
2023-06-17T08:23:46.349Z,94.00
2023-06-17T08:26:13.515Z,94.50
2023-06-17T08:28:40.680Z,94.50
2023-06-17T08:31:07.595Z,93.80
2023-06-17T08:33:34.804Z,94.10
2023-06-17T08:36:01.808Z,93.60
2023-06-17T08:38:28.660Z,94.90
2023-06-17T08:40:55.632Z,92.80
2023-06-17T08:43:23.756Z,92.60
2023-06-17T08:45:51.846Z,90.00
2023-06-17T08:48:19.354Z,91.50
2023-06-17T08:50:48.607Z,90.80
2023-06-17T08:53:16.068Z,92.00
2023-06-17T08:55:43.958Z,92.00
2023-06-17T08:58:11.635Z,92.10
2023-06-17T09:00:38.672Z,90.70
2023-06-17T09:03:08.585Z,90.00
2023-06-17T09:05:36.752Z,90.00
2023-06-17T09:08:04.036Z,90.60
2023-06-17T09:10:42.482Z,87.10
2023-06-17T09:13:09.718Z,86.90
2023-06-17T09:15:41.594Z,83.70
2023-06-17T09:18:11.930Z,88.00
2023-06-17T09:20:38.895Z,87.20
2023-06-17T09:23:05.790Z,86.70
2023-06-17T09:25:36.416Z,84.80
2023-06-17T09:28:15.996Z,86.80
2023-06-17T09:30:44.896Z,86.30
2023-06-17T09:33:22.997Z,84.50
2023-06-17T09:36:05.809Z,86.20
2023-06-17T09:38:33.585Z,87.10
2023-06-17T09:41:00.987Z,86.40
2023-06-17T09:43:29.429Z,84.20
2023-06-17T09:46:01.481Z,81.90
2023-06-17T09:48:33.487Z,77.40
2023-06-17T09:51:01.433Z,81.00
2023-06-17T09:53:30.781Z,80.80
2023-06-17T09:56:00.880Z,79.20
2023-06-17T09:58:32.571Z,81.50
2023-06-17T10:01:07.089Z,79.30
2023-06-17T10:03:35.007Z,77.00
2023-06-17T10:06:10.553Z,73.60
2023-06-17T10:08:40.843Z,76.00
2023-06-17T10:11:07.848Z,79.70
2023-06-17T10:13:38.030Z,80.00
2023-06-17T10:16:12.725Z,75.50
2023-06-17T10:18:42.357Z,73.50
2023-06-17T10:21:12.802Z,75.00
2023-06-17T10:23:42.590Z,75.00
2023-06-17T10:26:12.779Z,79.10
2023-06-17T10:28:54.488Z,80.60
2023-06-17T10:31:27.514Z,82.00
2023-06-17T10:33:56.404Z,77.70
2023-06-17T10:36:25.208Z,82.90
2023-06-17T10:39:05.615Z,78.20
2023-06-17T10:41:41.592Z,80.20
2023-06-17T10:44:36.688Z,79.40
2023-06-17T10:47:16.664Z,78.50
2023-06-17T10:49:43.822Z,77.20
2023-06-17T10:52:15.446Z,79.40
2023-06-17T10:54:55.315Z,75.30
2023-06-17T10:57:36.830Z,74.60
2023-06-17T11:00:13.109Z,73.30
2023-06-17T11:02:40.915Z,74.50
2023-06-17T11:05:09.373Z,72.50
2023-06-17T11:07:37.494Z,70.90
2023-06-17T11:10:05.406Z,69.60
2023-06-17T11:12:33.264Z,72.00
2023-06-17T11:15:01.433Z,71.10
2023-06-17T11:17:28.746Z,74.50
2023-06-17T11:19:56.340Z,70.70
2023-06-17T11:22:24.026Z,66.00
2023-06-17T11:24:50.945Z,69.40
2023-06-17T11:27:18.585Z,71.50
2023-06-17T11:29:46.026Z,74.70
2023-06-17T11:32:13.647Z,69.90
2023-06-17T11:34:42.817Z,69.30
2023-06-17T11:37:12.413Z,69.80
2023-06-17T11:39:40.214Z,65.90
2023-06-17T11:42:09.770Z,68.50
2023-06-17T11:44:37.148Z,68.20
2023-06-17T11:47:09.899Z,66.90
2023-06-17T11:49:41.646Z,65.30
2023-06-17T11:52:10.591Z,66.70
2023-06-17T11:54:49.992Z,66.80
2023-06-17T11:57:22.374Z,63.50
2023-06-17T11:59:51.113Z,67.00
2023-06-17T12:02:18.593Z,70.70
2023-06-17T12:04:47.258Z,69.00
2023-06-17T12:07:14.853Z,71.30
2023-06-17T12:09:55.566Z,67.80
2023-06-17T12:12:34.560Z,67.60
2023-06-17T12:15:14.813Z,71.60
2023-06-17T12:17:53.151Z,69.40
2023-06-17T12:20:22.353Z,66.80
2023-06-17T12:22:51.854Z,68.60
2023-06-17T12:25:19.518Z,70.60
2023-06-17T12:27:47.144Z,67.20
2023-06-17T12:30:14.918Z,67.20
2023-06-17T12:32:42.249Z,64.00
2023-06-17T12:35:12.553Z,64.10
2023-06-17T12:37:43.573Z,68.30
2023-06-17T12:40:11.262Z,64.20
2023-06-17T12:42:38.317Z,66.60
2023-06-17T12:45:07.313Z,66.70
2023-06-17T12:47:35.136Z,65.60
2023-06-17T12:50:02.257Z,63.50
2023-06-17T12:52:29.328Z,64.00
2023-06-17T12:55:00.452Z,63.00
2023-06-17T12:57:28.363Z,61.70
2023-06-17T12:59:55.741Z,63.20
2023-06-17T13:02:23.058Z,63.50
2023-06-17T13:04:50.531Z,66.60
2023-06-17T13:07:17.977Z,64.60
2023-06-17T13:09:44.919Z,61.30
2023-06-17T13:12:12.393Z,61.00
2023-06-17T13:14:39.391Z,62.30
2023-06-17T13:17:07.142Z,65.00
2023-06-17T13:19:34.179Z,63.40
2023-06-17T13:22:01.121Z,62.90
2023-06-17T13:24:28.330Z,60.80
2023-06-17T13:26:55.962Z,62.70
2023-06-17T13:29:24.179Z,67.30
2023-06-17T13:31:51.404Z,64.10
2023-06-17T13:34:19.218Z,62.30
2023-06-17T13:36:47.358Z,61.20
2023-06-17T13:39:15.077Z,62.20
2023-06-17T13:41:42.499Z,60.60
2023-06-17T13:44:09.892Z,59.80
2023-06-17T13:46:37.150Z,63.40
2023-06-17T13:49:04.605Z,64.10
2023-06-17T13:51:32.527Z,62.80
2023-06-17T13:54:01.834Z,62.80
2023-06-17T13:56:29.159Z,63.40
2023-06-17T13:58:56.721Z,63.20
2023-06-17T14:01:24.837Z,60.70
2023-06-17T14:03:52.377Z,65.40
2023-06-17T14:06:20.844Z,63.40
2023-06-17T14:08:48.067Z,63.10
2023-06-17T14:11:15.016Z,59.90
2023-06-17T14:13:43.926Z,62.10
2023-06-17T14:16:12.166Z,61.60
2023-06-17T14:18:39.277Z,65.00
2023-06-17T14:21:06.293Z,62.60
2023-06-17T14:23:33.277Z,63.30
2023-06-17T14:26:01.040Z,61.50
2023-06-17T14:28:27.956Z,59.00
2023-06-17T14:30:54.849Z,62.90
2023-06-17T14:33:21.727Z,62.30
2023-06-17T14:35:48.607Z,62.40
2023-06-17T14:38:15.526Z,60.60
2023-06-17T14:40:42.413Z,63.10
2023-06-17T14:43:09.359Z,62.60
2023-06-17T14:45:36.355Z,61.70
2023-06-17T14:48:04.272Z,62.20
2023-06-17T14:50:31.264Z,60.00
2023-06-17T14:52:58.202Z,60.30
2023-06-17T14:55:25.084Z,61.60
2023-06-17T14:57:52.253Z,60.80
2023-06-17T15:00:20.791Z,60.40
2023-06-17T15:02:56.169Z,59.00
2023-06-17T15:05:25.196Z,59.50
2023-06-17T15:07:53.109Z,60.80
2023-06-17T15:10:20.183Z,62.60
2023-06-17T15:12:47.471Z,62.70
2023-06-17T15:15:14.994Z,61.80
2023-06-17T15:17:42.609Z,62.00
2023-06-17T15:20:10.963Z,60.90
2023-06-17T15:22:39.366Z,60.40
2023-06-17T15:25:08.057Z,62.20
2023-06-17T15:27:35.016Z,61.20
2023-06-17T15:30:02.186Z,61.00
2023-06-17T15:32:29.161Z,62.00
2023-06-17T15:34:56.589Z,62.90
2023-06-17T15:37:23.581Z,61.90
2023-06-17T15:39:50.933Z,63.40
2023-06-17T15:42:17.898Z,61.10
2023-06-17T15:44:44.787Z,63.20
2023-06-17T15:47:11.789Z,62.70
2023-06-17T15:49:38.811Z,63.40
2023-06-17T15:52:06.607Z,59.90
2023-06-17T15:54:33.470Z,63.80
2023-06-17T15:57:02.451Z,60.30
2023-06-17T15:59:30.041Z,62.30
2023-06-17T16:01:57.057Z,62.30
2023-06-17T16:04:41.255Z,60.60
2023-06-17T16:07:13.979Z,63.30
2023-06-17T16:09:45.552Z,59.40
2023-06-17T16:12:13.039Z,61.10
2023-06-17T16:14:40.029Z,61.00
2023-06-17T16:17:09.311Z,58.40
2023-06-17T16:19:38.229Z,58.30
2023-06-17T16:22:10.997Z,59.10
2023-06-17T16:24:39.371Z,60.30
2023-06-17T16:27:06.556Z,60.30
2023-06-17T16:29:33.524Z,60.70
2023-06-17T16:32:00.502Z,61.10
2023-06-17T16:34:27.458Z,62.50
2023-06-17T16:36:54.346Z,62.70
2023-06-17T16:39:21.456Z,63.80
2023-06-17T16:41:48.468Z,64.20
2023-06-17T16:44:15.436Z,64.00
2023-06-17T16:46:42.374Z,63.70
2023-06-17T16:49:09.301Z,63.50
2023-06-17T16:51:36.221Z,64.60
2023-06-17T16:54:06.451Z,65.40
2023-06-17T16:56:33.749Z,64.20
2023-06-17T16:59:02.066Z,65.00
2023-06-17T17:01:29.808Z,66.40
2023-06-17T17:04:01.176Z,65.20
2023-06-17T17:06:28.118Z,65.00
2023-06-17T17:08:55.241Z,65.60
2023-06-17T17:11:22.219Z,66.60
2023-06-17T17:13:50.027Z,66.30
2023-06-17T17:16:18.510Z,67.30
2023-06-17T17:18:45.901Z,66.80
2023-06-17T17:21:13.053Z,66.40
2023-06-17T17:23:44.004Z,65.80
2023-06-17T17:26:13.189Z,67.00
2023-06-17T17:28:43.233Z,66.60
2023-06-17T17:31:10.376Z,67.50
2023-06-17T17:33:37.899Z,67.40
2023-06-17T17:36:05.176Z,66.90
2023-06-17T17:38:32.430Z,68.20
2023-06-17T17:40:59.329Z,71.00
2023-06-17T17:43:27.179Z,70.00
2023-06-17T17:45:56.334Z,70.80
2023-06-17T17:48:23.346Z,72.50
2023-06-17T17:50:51.408Z,70.90
2023-06-17T17:53:18.459Z,71.60
2023-06-17T17:55:45.425Z,72.10
2023-06-17T17:58:12.293Z,73.60
2023-06-17T18:00:39.270Z,72.10
2023-06-17T18:03:06.292Z,71.40
2023-06-17T18:05:33.672Z,72.20
2023-06-17T18:08:00.564Z,72.70
2023-06-17T18:10:27.473Z,73.70
2023-06-17T18:12:54.353Z,73.80
2023-06-17T18:15:21.443Z,75.50
2023-06-17T18:17:48.328Z,76.10
2023-06-17T18:20:15.365Z,76.80
2023-06-17T18:22:42.279Z,77.90
2023-06-17T18:25:09.988Z,76.90
2023-06-17T18:27:38.426Z,78.80
2023-06-17T18:30:06.416Z,80.00
2023-06-17T18:32:33.352Z,81.10
2023-06-17T18:35:00.362Z,81.40
2023-06-17T18:37:27.324Z,80.30
2023-06-17T18:39:54.365Z,80.60
2023-06-17T18:42:23.368Z,81.60
2023-06-17T18:44:50.230Z,81.10
2023-06-17T18:47:17.139Z,81.20
2023-06-17T18:49:43.989Z,81.70
2023-06-17T18:52:10.939Z,82.30
2023-06-17T18:54:37.816Z,82.80
2023-06-17T18:57:05.578Z,83.90
2023-06-17T18:59:32.726Z,84.30
2023-06-17T19:01:59.661Z,85.80
2023-06-17T19:04:26.571Z,86.00
2023-06-17T19:06:53.467Z,86.10
2023-06-17T19:09:20.575Z,86.40
2023-06-17T19:11:47.538Z,86.20
2023-06-17T19:14:14.510Z,85.70
2023-06-17T19:16:42.867Z,86.30
2023-06-17T19:19:09.898Z,87.30
2023-06-17T19:21:36.779Z,88.40
2023-06-17T19:24:04.069Z,89.60
2023-06-17T19:26:31.049Z,89.90
2023-06-17T19:28:57.971Z,89.20
2023-06-17T19:31:25.912Z,88.30
2023-06-17T19:33:53.916Z,89.10
2023-06-17T19:36:20.863Z,89.50
2023-06-17T19:38:47.768Z,90.10
2023-06-17T19:41:14.652Z,90.50
2023-06-17T19:43:41.541Z,90.90
2023-06-17T19:46:09.220Z,91.00
2023-06-17T19:48:36.720Z,91.30
2023-06-17T19:51:03.647Z,91.70
2023-06-17T19:53:31.420Z,91.90
2023-06-17T19:55:58.566Z,92.40
2023-06-17T19:58:25.569Z,92.40
2023-06-17T20:00:52.569Z,92.80
2023-06-17T20:03:19.615Z,93.10
2023-06-17T20:05:47.098Z,93.50
2023-06-17T20:08:14.668Z,93.60
2023-06-17T20:10:42.570Z,93.60
2023-06-17T20:13:09.907Z,94.20
2023-06-17T20:15:38.178Z,94.10
2023-06-17T20:18:05.571Z,94.40
2023-06-17T20:20:33.509Z,94.60
2023-06-17T20:23:00.580Z,94.80
2023-06-17T20:25:27.535Z,95.30
2023-06-17T20:27:54.402Z,95.00
2023-06-17T20:30:21.919Z,95.50
2023-06-17T20:32:49.085Z,95.20
2023-06-17T20:35:16.105Z,95.00
2023-06-17T20:37:44.592Z,95.50
2023-06-17T20:40:12.215Z,95.80
2023-06-17T20:42:39.195Z,96.10
2023-06-17T20:45:08.616Z,95.80
2023-06-17T20:47:36.299Z,96.00
2023-06-17T20:50:03.727Z,96.00
2023-06-17T20:52:30.795Z,96.30
2023-06-17T20:54:57.750Z,96.10
2023-06-17T20:57:24.641Z,96.10
2023-06-17T20:59:53.470Z,96.70
2023-06-17T21:02:20.688Z,96.90
2023-06-17T21:04:47.789Z,96.80
2023-06-17T21:07:14.725Z,97.20
2023-06-17T21:09:42.388Z,97.40
2023-06-17T21:12:09.586Z,97.50
2023-06-17T21:14:36.719Z,97.90
2023-06-17T21:17:03.777Z,98.20
2023-06-17T21:19:30.977Z,98.50
2023-06-17T21:21:57.876Z,98.60
2023-06-17T21:24:24.835Z,98.60
2023-06-17T21:26:51.743Z,98.60
2023-06-17T21:29:18.663Z,98.10
2023-06-17T21:31:45.631Z,97.40
2023-06-17T21:34:12.723Z,97.20
2023-06-17T21:36:40.448Z,96.70
2023-06-17T21:39:07.381Z,96.50
2023-06-17T21:41:34.272Z,96.30
2023-06-17T21:44:01.188Z,95.90
2023-06-17T21:46:31.032Z,95.50
2023-06-17T21:48:58.344Z,95.60
2023-06-17T21:51:25.316Z,95.20
2023-06-17T21:53:52.266Z,95.20
2023-06-17T21:56:19.156Z,96.90
2023-06-17T21:58:46.390Z,97.20
2023-06-17T22:01:13.344Z,97.60
2023-06-17T22:03:41.695Z,98.60
2023-06-17T22:06:09.056Z,99.20
2023-06-17T22:08:42.880Z,99.40
2023-06-17T22:11:12.142Z,99.90
2023-06-17T22:13:39.626Z,99.90
2023-06-17T22:16:06.870Z,99.90
2023-06-17T22:18:34.005Z,99.90
2023-06-17T22:21:01.054Z,99.90
2023-06-17T22:23:27.956Z,99.90
2023-06-17T22:25:56.615Z,99.90
2023-06-17T22:28:23.727Z,99.90
2023-06-17T22:30:50.929Z,99.90
2023-06-17T22:33:17.856Z,99.90
2023-06-17T22:35:44.725Z,99.90
2023-06-17T22:38:13.856Z,99.90
2023-06-17T22:40:40.808Z,99.90
2023-06-17T22:43:07.865Z,99.90
2023-06-17T22:45:34.888Z,99.90
2023-06-17T22:48:03.438Z,99.90
2023-06-17T22:50:30.878Z,99.90
2023-06-17T22:52:57.732Z,99.90
2023-06-17T22:55:24.619Z,99.90
2023-06-17T22:57:51.766Z,99.90
2023-06-17T23:00:19.143Z,99.90
2023-06-17T23:02:46.462Z,99.90
2023-06-17T23:05:13.478Z,99.90
2023-06-17T23:07:40.391Z,99.90
2023-06-17T23:10:07.940Z,99.90
2023-06-17T23:12:34.874Z,99.90
2023-06-17T23:15:01.965Z,99.90
2023-06-17T23:17:28.992Z,99.90
2023-06-17T23:20:00.455Z,99.90
2023-06-17T23:22:28.174Z,99.90
2023-06-17T23:24:56.177Z,99.90
2023-06-17T23:27:27.880Z,99.90
2023-06-17T23:29:56.051Z,99.90
2023-06-17T23:32:24.174Z,99.90
2023-06-17T23:34:54.734Z,99.90
2023-06-17T23:37:21.908Z,99.90
2023-06-17T23:39:48.986Z,99.90
2023-06-17T23:42:15.911Z,99.90
2023-06-17T23:44:43.350Z,99.90
2023-06-17T23:47:11.276Z,99.90
2023-06-17T23:49:40.811Z,99.90
2023-06-17T23:52:11.646Z,99.90
2023-06-17T23:54:38.753Z,99.90
2023-06-17T23:57:06.120Z,99.90
2023-06-17T23:59:33.404Z,99.90
